12 a 21/10 - Evento de lluvias y tormentas CN y N. Templado a caluroso C, N y Patagonia N [final con tormentas severas]

Cordobés82
Mensajes: 210
Registrado: Vie Abr 22, 2016 2:13 am
Ubicación: Córdoba

Re: 12 a 21/10 - Evento de lluvias y tormentas CN y N. Templado a caluroso C, N y Patagonia N.

Mensaje por Cordobés82 » Lun Oct 19, 2020 11:22 pm

Después de tanta sequía e incendios, la lluvia en estos momentos en Córdoba se siente como algo ORGÁSMICO.

Y hay unos truenitos crecientes, algo me dice que se viene una linda madrugada de lluvia continua


Avatar de Usuario
pupy
Mensajes: 2514
Registrado: Mar Mar 02, 2010 7:15 pm
Ubicación: Cordoba capital

Re: 12 a 21/10 - Evento de lluvias y tormentas CN y N. Templado a caluroso C, N y Patagonia N.

Mensaje por pupy » Lun Oct 19, 2020 11:24 pm

Llueve moderado con actividad electrica en cordoba capital !!!!!

Avatar de Usuario
Diecha
Mensajes: 13689
Registrado: Jue Ago 25, 2011 9:31 pm
Ubicación: Lomas de Zamora

Re: 12 a 21/10 - Evento de lluvias y tormentas CN y N. Templado a caluroso C, N y Patagonia N.

Mensaje por Diecha » Lun Oct 19, 2020 11:27 pm

- San Fernando 23 hs: SADF 200200Z 13010KT 8000 -TSRA BKN009 FEW045CB OVC080 18/17 Q1017
- Aeroparque 23 hs: SABE 200200Z 14011KT 8000 -RA BKN011 OVC050 16/15 Q1018
- Ezeiza 23 hs: SAEZ 200200Z 13009KT 3000 -TSRA FEW004 BKN037 FEW045CB 13/12 Q1018

Imagen
Imagen

Avatar de Usuario
Ernest
Mensajes: 11819
Registrado: Vie Jul 17, 2009 10:54 pm
Ubicación: Balvanera, CABA

Re: 12 a 21/10 - Evento de lluvias y tormentas CN y N. Templado a caluroso C, N y Patagonia N.

Mensaje por Ernest » Lun Oct 19, 2020 11:39 pm

Tremenda la diferencia entre los 18,4 de San Fernando y los 13,2 de Merlo a las 23.
Mi termómetro supera por poco los 14 grados; continua lloviendo débilmente con intervalos moderados.

A todo esto, linda diferencia entre Tucumán (32,1) y Bariloche (0,5)
Did you want to talk about the weather, or were you just making chitchat?

Twitter: @ErnestoMeteo

Avatar de Usuario
HernanCba
Mensajes: 3274
Registrado: Sab Mar 02, 2013 1:21 am
Ubicación: Cosquín, Valle de Punilla, Córdoba
Contactar:

Re: 12 a 21/10 - Evento de lluvias y tormentas CN y N. Templado a caluroso C, N y Patagonia N.

Mensaje por HernanCba » Lun Oct 19, 2020 11:40 pm

Nada importante por acá al momento. Todo al este, me preocupa (?

Avatar de Usuario
Diecha
Mensajes: 13689
Registrado: Jue Ago 25, 2011 9:31 pm
Ubicación: Lomas de Zamora

Re: 12 a 21/10 - Evento de lluvias y tormentas CN y N. Templado a caluroso C, N y Patagonia N.

Mensaje por Diecha » Lun Oct 19, 2020 11:40 pm

Última edición por Diecha el Mar Oct 20, 2020 12:11 am, editado 1 vez en total.

Avatar de Usuario
Ale de Castelar
Mensajes: 27672
Registrado: Sab Mar 03, 2012 12:25 pm
Ubicación: Caballito

Re: 12 a 21/10 - Evento de lluvias y tormentas CN y N. Templado a caluroso C, N y Patagonia N.

Mensaje por Ale de Castelar » Lun Oct 19, 2020 11:44 pm

Coronda


Avatar de Usuario
Ale de Castelar
Mensajes: 27672
Registrado: Sab Mar 03, 2012 12:25 pm
Ubicación: Caballito

Re: 12 a 21/10 - Evento de lluvias y tormentas CN y N. Templado a caluroso C, N y Patagonia N.

Mensaje por Ale de Castelar » Lun Oct 19, 2020 11:52 pm

Parana


Avatar de Usuario
Ezequiel15
Mensajes: 12133
Registrado: Lun Ene 23, 2012 4:18 pm
Ubicación: I Casanova
Contactar:

Re: 12 a 21/10 - Evento de lluvias y tormentas CN y N. Templado a caluroso C, N y Patagonia N [final con tormentas sever

Mensaje por Ezequiel15 » Lun Oct 19, 2020 11:55 pm

Ezeiza ya tenia 13,3 a las 23hs, unos 16°C menos que ayer a la misma hora.

Responder